Blythe, CA (92225)

7:24 PM PST on December 03, 2016 (GMT -0800)
farmerman92225 | | Change Station

Elev 259 ft 33.62 °N, 114.66 °W | Updated 35 seconds ago

Clear
Clear
60.0 °F
Feels Like 60.0 °F
N
9.0
Wind Variable Wind from NNW
Gusts 9.0 mph

Today
High -- | Low -- °F
--% Chance of Precip.
Yesterday
High -- | Low -- °F
Precip. -- in
Pressure 30.03 in
Visibility 10.0 miles
Clouds Clear
Dew Point 5 °F
Humidity 11%
Rainfall 0.00 in
Snow Depth Not available.
6:27 AM 4:30 PM
Waxing Crescent, 19% visible
METAR KBLH 040252Z AUTO 36017KT 10SM CLR 16/M17 A3003 RMK AO2 SLP168 T01561172 53006
Pressure 30.03 in
Visibility 10.0 miles
Clouds Clear
Dew Point 5 °F
Humidity 11%
Rainfall 0.00 in
Snow Depth Not available.
6:27 AM 4:30 PM
Waxing Crescent, 19% visible
METAR KBLH 040252Z AUTO 36017KT 10SM CLR 16/M17 A3003 RMK AO2 SLP168 T01561172 53006

10-Day Weather Forecast

Almanac

Astronomy

Dec. 03, 2016 Rise Set
Actual Time
Civil Twilight
Nautical Twilight
Astronomical Twilight
Moon
Length of Visible Light
Length of Day
Tomorrow will be .
, % of the Moon is Illuminated

Today's Extremes

State Highs State Lows

Community

WunderPhotos

Upload Photos

1,955,570 photos uploaded!

WunderBlog® & News

Nearby

Air Quality

  Air Quality AQ Index Pollutant
Not available.

Snow Depth

Station Depth Elevation

Earthquake Activity

City Distance Mag. Time & Date
Minimum magnitude displayed is 2.5.

Coastal Water Temperatures

Place Temperature

Stations

Nearby Weather Stations

Station Location Temp. Windchill Dew Point Humidity Wind Precip. Elev Updated Type
                   

Watches & Warnings

There are currently no watches in effect.